createdAt,value
2023-01-29T00:03:48.985Z,19.08
2023-01-29T00:08:57.176Z,17.25
2023-01-29T00:14:02.325Z,18.27
2023-01-29T00:19:17.748Z,17.73
2023-01-29T00:24:35.335Z,18.05
2023-01-29T00:30:10.255Z,17.83
2023-01-29T00:35:33.715Z,18.52
2023-01-29T00:40:56.325Z,19.83
2023-01-29T00:46:01.850Z,15.93
2023-01-29T00:51:07.565Z,16.23
2023-01-29T00:56:15.902Z,17.25
2023-01-29T01:01:43.898Z,19.90
2023-01-29T01:06:50.868Z,16.83
2023-01-29T01:12:01.876Z,19.20
2023-01-29T01:17:13.666Z,15.63
2023-01-29T01:22:19.304Z,17.45
2023-01-29T01:27:27.724Z,17.00
2023-01-29T01:32:33.152Z,16.77
2023-01-29T01:37:40.214Z,18.02
2023-01-29T01:42:48.316Z,17.42
2023-01-29T01:47:56.166Z,17.10
2023-01-29T01:53:04.451Z,15.20
2023-01-29T01:58:16.504Z,16.90
2023-01-29T02:03:35.839Z,16.35
2023-01-29T02:08:57.975Z,19.15
2023-01-29T02:14:05.960Z,18.45
2023-01-29T02:19:18.456Z,16.20
2023-01-29T02:24:51.427Z,16.90
2023-01-29T02:30:06.374Z,15.13
2023-01-29T02:35:32.418Z,17.48
2023-01-29T02:40:44.332Z,19.52
2023-01-29T02:45:55.487Z,18.65
2023-01-29T02:51:03.622Z,17.92
2023-01-29T02:56:13.828Z,17.55
2023-01-29T03:01:25.115Z,18.42
2023-01-29T03:06:42.836Z,17.02
2023-01-29T03:11:54.156Z,17.77
2023-01-29T03:17:03.266Z,16.67
2023-01-29T03:22:09.953Z,17.95
2023-01-29T03:27:32.733Z,16.95
2023-01-29T03:32:40.823Z,16.33
2023-01-29T03:37:50.151Z,15.98
2023-01-29T03:43:11.520Z,17.23
2023-01-29T03:48:22.905Z,15.27
2023-01-29T03:53:32.451Z,15.30
2023-01-29T03:58:42.125Z,14.98
2023-01-29T04:03:55.790Z,14.98
2023-01-29T04:09:06.018Z,15.50
2023-01-29T04:14:11.507Z,15.55
2023-01-29T04:19:19.863Z,13.77
2023-01-29T04:24:25.108Z,14.73
2023-01-29T04:29:43.957Z,14.23
2023-01-29T04:35:15.985Z,11.88
2023-01-29T04:40:29.949Z,10.38
2023-01-29T04:45:42.488Z,9.55
2023-01-29T04:50:55.683Z,9.70
2023-01-29T04:56:08.065Z,8.13
2023-01-29T05:01:17.401Z,8.95
2023-01-29T05:06:26.753Z,8.70
2023-01-29T05:11:36.480Z,9.18
2023-01-29T05:16:45.279Z,9.02
2023-01-29T05:27:10.680Z,10.75
2023-01-29T05:32:16.062Z,11.75
2023-01-29T05:37:23.900Z,10.93
2023-01-29T05:42:29.388Z,9.73
2023-01-29T05:47:34.641Z,9.88
2023-01-29T05:52:42.706Z,9.57
2023-01-29T05:57:47.886Z,11.80
2023-01-29T06:02:53.463Z,11.20
2023-01-29T06:08:04.175Z,11.10
2023-01-29T06:13:09.528Z,9.98
2023-01-29T06:18:15.226Z,8.85
2023-01-29T06:23:23.199Z,9.23
2023-01-29T06:28:28.347Z,9.77
2023-01-29T06:33:33.677Z,10.15
2023-01-29T06:38:41.660Z,9.63
2023-01-29T06:43:51.971Z,8.38
2023-01-29T06:48:57.446Z,9.35
2023-01-29T06:54:06.680Z,10.32
2023-01-29T06:59:12.029Z,8.30
2023-01-29T07:04:17.297Z,9.77
2023-01-29T07:09:25.576Z,9.75
2023-01-29T07:14:33.593Z,8.52
2023-01-29T07:19:38.983Z,9.32
2023-01-29T07:24:46.817Z,9.30
2023-01-29T07:29:51.913Z,8.65
2023-01-29T07:34:57.018Z,6.95
2023-01-29T07:40:05.486Z,12.40
2023-01-29T07:45:12.432Z,12.05
2023-01-29T07:50:18.144Z,9.52
2023-01-29T07:55:36.621Z,9.43
2023-01-29T08:00:42.571Z,8.90
2023-01-29T08:05:54.291Z,9.23
2023-01-29T08:11:04.570Z,8.35
2023-01-29T08:16:11.187Z,8.93
2023-01-29T08:21:19.709Z,9.27
2023-01-29T08:26:28.351Z,8.15
2023-01-29T08:31:48.228Z,10.18
2023-01-29T08:36:56.775Z,11.02
2023-01-29T08:42:08.606Z,10.25
2023-01-29T08:47:16.611Z,9.57
2023-01-29T08:52:34.968Z,8.18
2023-01-29T08:57:50.313Z,7.78
2023-01-29T09:03:05.941Z,7.40
2023-01-29T09:08:15.578Z,8.70
2023-01-29T09:13:25.061Z,9.95
2023-01-29T09:18:30.900Z,7.82
2023-01-29T09:23:41.547Z,9.32
2023-01-29T09:28:50.156Z,8.73
2023-01-29T09:33:56.240Z,10.85
2023-01-29T09:39:06.076Z,9.13
2023-01-29T09:50:06.740Z,10.63
2023-01-29T09:55:18.826Z,10.25
2023-01-29T10:00:32.197Z,7.53
2023-01-29T10:06:00.971Z,8.18
2023-01-29T10:11:17.561Z,10.93
2023-01-29T10:16:39.096Z,8.30
2023-01-29T10:22:29.200Z,6.60
2023-01-29T10:27:59.507Z,9.65
2023-01-29T10:33:49.172Z,8.10
2023-01-29T10:57:17.658Z,7.25
2023-01-29T11:02:25.133Z,7.38
2023-01-29T11:25:36.704Z,7.75
2023-01-29T11:31:26.692Z,8.43
2023-01-29T11:37:15.707Z,8.63
2023-01-29T11:42:34.369Z,7.75
2023-01-29T11:48:35.181Z,7.78
2023-01-29T11:53:45.018Z,6.95
2023-01-29T11:58:58.621Z,8.77
2023-01-29T12:04:05.440Z,8.88
2023-01-29T12:09:46.919Z,9.07
2023-01-29T12:15:10.608Z,6.93
2023-01-29T12:20:19.516Z,7.10
2023-01-29T12:25:27.868Z,9.73
2023-01-29T12:30:42.576Z,9.30
2023-01-29T12:35:52.070Z,7.97
2023-01-29T12:41:02.902Z,7.88
2023-01-29T12:46:17.843Z,9.02
2023-01-29T12:56:34.037Z,6.97
2023-01-29T13:01:47.930Z,8.20
2023-01-29T13:06:55.374Z,8.27
2023-01-29T13:12:04.546Z,8.65
2023-01-29T13:17:15.797Z,8.30
2023-01-29T13:22:26.100Z,8.05
2023-01-29T13:27:35.580Z,7.45
2023-01-29T13:33:15.859Z,6.05
2023-01-29T13:38:28.964Z,7.57
2023-01-29T13:43:39.744Z,7.00
2023-01-29T13:48:54.320Z,7.05
2023-01-29T13:54:03.070Z,8.52
2023-01-29T13:59:10.311Z,7.03
2023-01-29T14:04:27.813Z,8.27
2023-01-29T14:09:50.582Z,7.68
2023-01-29T14:15:06.929Z,8.02
2023-01-29T14:20:27.705Z,8.30
2023-01-29T14:25:41.462Z,8.65
2023-01-29T14:30:53.141Z,9.18
2023-01-29T14:36:02.770Z,9.98
2023-01-29T14:41:12.715Z,9.45
2023-01-29T14:47:27.511Z,8.13
2023-01-29T15:21:54.229Z,10.05
2023-01-29T15:27:09.336Z,9.85
2023-01-29T15:32:38.027Z,10.35
2023-01-29T15:37:47.120Z,13.32
2023-01-29T15:42:53.809Z,12.32
2023-01-29T15:48:10.620Z,13.48
2023-01-29T15:53:45.237Z,14.90
2023-01-29T16:04:18.184Z,23.23
2023-01-29T16:09:29.393Z,23.67
2023-01-29T16:38:46.724Z,23.63
2023-01-29T16:44:40.691Z,21.55
2023-01-29T16:49:52.872Z,23.70
2023-01-29T17:01:29.339Z,28.60
2023-01-29T17:07:00.883Z,27.25
2023-01-29T17:18:31.556Z,19.88
2023-01-29T17:23:45.171Z,17.90
2023-01-29T17:28:58.562Z,17.27
2023-01-29T17:34:21.835Z,15.10
2023-01-29T17:39:46.940Z,15.18
2023-01-29T17:45:04.780Z,15.20
2023-01-29T17:50:25.879Z,14.90
2023-01-29T18:01:01.937Z,14.68
2023-01-29T18:06:32.725Z,16.38
2023-01-29T18:11:39.440Z,17.38
2023-01-29T18:17:19.477Z,14.77
2023-01-29T18:22:28.260Z,17.83
2023-01-29T18:32:51.043Z,13.63
2023-01-29T18:38:00.327Z,13.90
2023-01-29T18:43:06.873Z,11.98
2023-01-29T18:48:13.398Z,13.23
2023-01-29T18:53:31.261Z,12.25
2023-01-29T18:58:51.952Z,14.88
2023-01-29T19:04:05.939Z,13.25
2023-01-29T19:09:15.151Z,10.57
2023-01-29T19:14:22.080Z,12.07
2023-01-29T19:19:28.387Z,10.55
2023-01-29T19:24:40.052Z,10.52
2023-01-29T19:29:48.136Z,8.98
2023-01-29T19:35:00.200Z,10.48
2023-01-29T19:40:17.169Z,9.80
2023-01-29T19:45:37.197Z,14.75
2023-01-29T19:50:57.529Z,14.50
2023-01-29T19:56:08.860Z,14.77
2023-01-29T20:01:25.295Z,13.07
2023-01-29T20:06:32.946Z,11.02
2023-01-29T20:12:18.526Z,8.75
2023-01-29T20:17:27.603Z,8.20
2023-01-29T20:22:48.599Z,9.13
2023-01-29T20:28:01.832Z,7.70
2023-01-29T20:33:36.624Z,7.93
2023-01-29T20:38:43.851Z,6.85
2023-01-29T20:44:06.021Z,6.82
2023-01-29T20:54:32.569Z,7.75
2023-01-29T20:59:42.294Z,7.85
2023-01-29T21:04:48.620Z,7.40
2023-01-29T21:09:59.584Z,9.68
2023-01-29T21:15:14.495Z,10.48
2023-01-29T21:20:38.427Z,8.35
2023-01-29T21:25:46.404Z,8.98
2023-01-29T21:31:08.681Z,9.10
2023-01-29T21:36:29.496Z,8.23
2023-01-29T21:41:56.374Z,7.53
2023-01-29T21:47:29.318Z,8.63
2023-01-29T21:53:01.339Z,7.80
2023-01-29T21:59:17.772Z,7.07
2023-01-29T22:04:30.253Z,10.35
2023-01-29T22:09:44.240Z,8.63
2023-01-29T22:15:12.608Z,7.22
2023-01-29T22:20:39.746Z,7.57
2023-01-29T22:43:04.036Z,7.07
2023-01-29T22:48:46.813Z,7.45
2023-01-29T23:04:40.525Z,7.20
2023-01-29T23:33:59.444Z,8.38
